sensor_id;sensor_type;location;lat;lon;timestamp;P1;durP1;ratioP1;P2;durP2;ratioP2
68234;SDS011;55052;52.056;5.296;2022-10-16T00:00:55;8.40;;;2.70;;
68234;SDS011;55052;52.056;5.296;2022-10-16T00:03:21;9.32;;;2.45;;
68234;SDS011;55052;52.056;5.296;2022-10-16T00:05:54;9.77;;;2.85;;
68234;SDS011;55052;52.056;5.296;2022-10-16T00:08:26;5.05;;;2.30;;
68234;SDS011;55052;52.056;5.296;2022-10-16T00:10:58;7.18;;;2.90;;
68234;SDS011;55052;52.056;5.296;2022-10-16T00:13:29;7.88;;;2.83;;
68234;SDS011;55052;52.056;5.296;2022-10-16T00:15:57;9.63;;;2.40;;
68234;SDS011;55052;52.056;5.296;2022-10-16T00:18:25;4.88;;;2.22;;
68234;SDS011;55052;52.056;5.296;2022-10-16T00:20:53;6.05;;;2.55;;
68234;SDS011;55052;52.056;5.296;2022-10-16T00:23:25;7.47;;;2.55;;
68234;SDS011;55052;52.056;5.296;2022-10-16T00:25:56;6.07;;;2.65;;
68234;SDS011;55052;52.056;5.296;2022-10-16T00:28:27;8.18;;;2.67;;
68234;SDS011;55052;52.056;5.296;2022-10-16T00:30:54;6.95;;;2.55;;
68234;SDS011;55052;52.056;5.296;2022-10-16T00:33:21;9.60;;;2.50;;
68234;SDS011;55052;52.056;5.296;2022-10-16T00:35:48;6.35;;;2.58;;
68234;SDS011;55052;52.056;5.296;2022-10-16T00:38:16;8.40;;;3.00;;
68234;SDS011;55052;52.056;5.296;2022-10-16T00:40:43;4.50;;;2.58;;
68234;SDS011;55052;52.056;5.296;2022-10-16T00:43:13;7.60;;;2.67;;
68234;SDS011;55052;52.056;5.296;2022-10-16T00:45:59;9.48;;;2.95;;
68234;SDS011;55052;52.056;5.296;2022-10-16T00:48:26;6.63;;;3.00;;
68234;SDS011;55052;52.056;5.296;2022-10-16T00:50:53;9.98;;;2.58;;
68234;SDS011;55052;52.056;5.296;2022-10-16T00:53:20;6.55;;;2.70;;
68234;SDS011;55052;52.056;5.296;2022-10-16T00:55:47;7.18;;;2.72;;
68234;SDS011;55052;52.056;5.296;2022-10-16T00:58:14;7.53;;;2.67;;
68234;SDS011;55052;52.056;5.296;2022-10-16T01:00:41;6.18;;;2.75;;
68234;SDS011;55052;52.056;5.296;2022-10-16T01:06:21;8.30;;;2.95;;
68234;SDS011;55052;52.056;5.296;2022-10-16T01:17:12;10.95;;;2.50;;
68234;SDS011;55052;52.056;5.296;2022-10-16T01:28:20;5.10;;;2.55;;
68234;SDS011;55052;52.056;5.296;2022-10-16T01:30:52;6.63;;;2.53;;
68234;SDS011;55052;52.056;5.296;2022-10-16T01:33:28;6.28;;;2.80;;
68234;SDS011;55052;52.056;5.296;2022-10-16T01:38:37;5.97;;;2.80;;
68234;SDS011;55052;52.056;5.296;2022-10-16T01:41:09;8.95;;;2.88;;
68234;SDS011;55052;52.056;5.296;2022-10-16T01:46:32;5.45;;;2.70;;
68234;SDS011;55052;52.056;5.296;2022-10-16T01:51:30;5.93;;;2.85;;
68234;SDS011;55052;52.056;5.296;2022-10-16T01:53:58;6.28;;;2.75;;
68234;SDS011;55052;52.056;5.296;2022-10-16T01:56:27;8.82;;;2.90;;
68234;SDS011;55052;52.056;5.296;2022-10-16T01:58:58;8.07;;;3.00;;
68234;SDS011;55052;52.056;5.296;2022-10-16T02:01:33;5.10;;;2.80;;
68234;SDS011;55052;52.056;5.296;2022-10-16T02:04:13;7.25;;;2.55;;
68234;SDS011;55052;52.056;5.296;2022-10-16T02:07:00;7.10;;;2.67;;
68234;SDS011;55052;52.056;5.296;2022-10-16T02:09:27;7.95;;;2.90;;
68234;SDS011;55052;52.056;5.296;2022-10-16T02:11:54;4.97;;;2.55;;
68234;SDS011;55052;52.056;5.296;2022-10-16T02:14:23;6.07;;;2.72;;
68234;SDS011;55052;52.056;5.296;2022-10-16T02:16:50;8.93;;;2.55;;
68234;SDS011;55052;52.056;5.296;2022-10-16T02:19:17;7.97;;;3.00;;
68234;SDS011;55052;52.056;5.296;2022-10-16T02:21:50;6.13;;;2.78;;
68234;SDS011;55052;52.056;5.296;2022-10-16T02:24:32;5.85;;;2.70;;
68234;SDS011;55052;52.056;5.296;2022-10-16T02:27:05;7.30;;;2.50;;
68234;SDS011;55052;52.056;5.296;2022-10-16T02:29:42;5.43;;;2.60;;
68234;SDS011;55052;52.056;5.296;2022-10-16T02:32:15;6.55;;;2.53;;
68234;SDS011;55052;52.056;5.296;2022-10-16T02:34:45;6.07;;;2.58;;
68234;SDS011;55052;52.056;5.296;2022-10-16T02:37:15;8.47;;;2.43;;
68234;SDS011;55052;52.056;5.296;2022-10-16T02:39:43;5.05;;;2.60;;
68234;SDS011;55052;52.056;5.296;2022-10-16T02:42:11;7.07;;;2.70;;
68234;SDS011;55052;52.056;5.296;2022-10-16T02:44:39;5.65;;;2.45;;
68234;SDS011;55052;52.056;5.296;2022-10-16T02:47:06;5.97;;;2.63;;
68234;SDS011;55052;52.056;5.296;2022-10-16T02:49:33;4.95;;;2.72;;
68234;SDS011;55052;52.056;5.296;2022-10-16T02:51:59;4.60;;;2.40;;
68234;SDS011;55052;52.056;5.296;2022-10-16T02:54:26;5.80;;;2.88;;
68234;SDS011;55052;52.056;5.296;2022-10-16T02:56:53;5.05;;;2.40;;
68234;SDS011;55052;52.056;5.296;2022-10-16T02:59:19;5.55;;;2.55;;
68234;SDS011;55052;52.056;5.296;2022-10-16T03:01:46;4.50;;;2.55;;
68234;SDS011;55052;52.056;5.296;2022-10-16T03:04:13;7.80;;;2.60;;
68234;SDS011;55052;52.056;5.296;2022-10-16T03:06:39;5.13;;;2.70;;
68234;SDS011;55052;52.056;5.296;2022-10-16T03:09:06;6.68;;;2.60;;
68234;SDS011;55052;52.056;5.296;2022-10-16T03:11:33;6.57;;;2.83;;
68234;SDS011;55052;52.056;5.296;2022-10-16T03:13:59;7.88;;;2.88;;
68234;SDS011;55052;52.056;5.296;2022-10-16T03:16:26;5.15;;;2.65;;
68234;SDS011;55052;52.056;5.296;2022-10-16T03:18:53;7.60;;;2.78;;
68234;SDS011;55052;52.056;5.296;2022-10-16T03:21:19;4.53;;;2.13;;
68234;SDS011;55052;52.056;5.296;2022-10-16T03:23:46;5.50;;;2.72;;
68234;SDS011;55052;52.056;5.296;2022-10-16T03:26:13;4.68;;;2.53;;
68234;SDS011;55052;52.056;5.296;2022-10-16T03:28:39;5.43;;;2.55;;
68234;SDS011;55052;52.056;5.296;2022-10-16T03:31:06;3.85;;;2.22;;
68234;SDS011;55052;52.056;5.296;2022-10-16T03:33:34;11.60;;;2.35;;
68234;SDS011;55052;52.056;5.296;2022-10-16T03:36:00;4.88;;;2.00;;
68234;SDS011;55052;52.056;5.296;2022-10-16T03:38:27;6.18;;;2.50;;
68234;SDS011;55052;52.056;5.296;2022-10-16T03:40:54;7.75;;;2.35;;
68234;SDS011;55052;52.056;5.296;2022-10-16T03:43:20;4.63;;;2.10;;
68234;SDS011;55052;52.056;5.296;2022-10-16T03:45:47;4.22;;;2.40;;
68234;SDS011;55052;52.056;5.296;2022-10-16T03:48:15;7.68;;;2.45;;
68234;SDS011;55052;52.056;5.296;2022-10-16T03:50:42;4.97;;;2.25;;
68234;SDS011;55052;52.056;5.296;2022-10-16T03:53:09;3.78;;;2.15;;
68234;SDS011;55052;52.056;5.296;2022-10-16T03:55:36;6.18;;;2.33;;
68234;SDS011;55052;52.056;5.296;2022-10-16T03:58:02;3.72;;;2.17;;
68234;SDS011;55052;52.056;5.296;2022-10-16T04:00:29;4.72;;;2.15;;
68234;SDS011;55052;52.056;5.296;2022-10-16T04:02:55;4.20;;;2.25;;
68234;SDS011;55052;52.056;5.296;2022-10-16T04:05:22;5.20;;;2.00;;
68234;SDS011;55052;52.056;5.296;2022-10-16T04:07:49;4.93;;;2.10;;
68234;SDS011;55052;52.056;5.296;2022-10-16T04:10:15;7.85;;;2.30;;
68234;SDS011;55052;52.056;5.296;2022-10-16T04:12:42;7.43;;;2.83;;
68234;SDS011;55052;52.056;5.296;2022-10-16T04:15:09;3.45;;;2.03;;
68234;SDS011;55052;52.056;5.296;2022-10-16T04:17:36;3.85;;;1.80;;
68234;SDS011;55052;52.056;5.296;2022-10-16T04:20:02;4.18;;;2.10;;
68234;SDS011;55052;52.056;5.296;2022-10-16T04:22:29;6.50;;;2.00;;
68234;SDS011;55052;52.056;5.296;2022-10-16T04:24:56;6.20;;;2.08;;
68234;SDS011;55052;52.056;5.296;2022-10-16T04:27:23;4.50;;;1.92;;
68234;SDS011;55052;52.056;5.296;2022-10-16T04:29:50;4.70;;;2.10;;
68234;SDS011;55052;52.056;5.296;2022-10-16T04:32:17;11.02;;;2.40;;
68234;SDS011;55052;52.056;5.296;2022-10-16T04:34:44;5.22;;;2.10;;
68234;SDS011;55052;52.056;5.296;2022-10-16T04:37:10;3.80;;;1.90;;
68234;SDS011;55052;52.056;5.296;2022-10-16T04:39:37;4.57;;;2.00;;
68234;SDS011;55052;52.056;5.296;2022-10-16T04:42:03;5.78;;;2.45;;
68234;SDS011;55052;52.056;5.296;2022-10-16T04:44:30;8.52;;;2.45;;
68234;SDS011;55052;52.056;5.296;2022-10-16T04:46:57;4.75;;;2.20;;
68234;SDS011;55052;52.056;5.296;2022-10-16T04:49:24;4.65;;;2.20;;
68234;SDS011;55052;52.056;5.296;2022-10-16T04:51:50;4.57;;;2.00;;
68234;SDS011;55052;52.056;5.296;2022-10-16T04:54:17;6.20;;;2.15;;
68234;SDS011;55052;52.056;5.296;2022-10-16T04:56:44;5.97;;;2.20;;
68234;SDS011;55052;52.056;5.296;2022-10-16T04:59:14;4.00;;;2.20;;
68234;SDS011;55052;52.056;5.296;2022-10-16T05:01:41;4.03;;;2.05;;
68234;SDS011;55052;52.056;5.296;2022-10-16T05:04:07;5.63;;;2.20;;
68234;SDS011;55052;52.056;5.296;2022-10-16T05:06:35;6.63;;;2.08;;
68234;SDS011;55052;52.056;5.296;2022-10-16T05:09:02;4.70;;;2.00;;
68234;SDS011;55052;52.056;5.296;2022-10-16T05:11:29;5.10;;;2.25;;
68234;SDS011;55052;52.056;5.296;2022-10-16T05:13:55;7.57;;;2.13;;
68234;SDS011;55052;52.056;5.296;2022-10-16T05:16:22;5.57;;;2.40;;
68234;SDS011;55052;52.056;5.296;2022-10-16T05:18:50;5.38;;;2.30;;
68234;SDS011;55052;52.056;5.296;2022-10-16T05:21:21;7.60;;;2.35;;
68234;SDS011;55052;52.056;5.296;2022-10-16T05:23:48;5.00;;;2.10;;
68234;SDS011;55052;52.056;5.296;2022-10-16T05:26:14;5.00;;;2.60;;
68234;SDS011;55052;52.056;5.296;2022-10-16T05:28:41;5.45;;;2.67;;
68234;SDS011;55052;52.056;5.296;2022-10-16T05:31:08;5.35;;;2.20;;
68234;SDS011;55052;52.056;5.296;2022-10-16T05:33:36;5.57;;;2.30;;
68234;SDS011;55052;52.056;5.296;2022-10-16T05:36:04;5.47;;;2.35;;
68234;SDS011;55052;52.056;5.296;2022-10-16T05:38:33;4.03;;;2.25;;
68234;SDS011;55052;52.056;5.296;2022-10-16T05:41:01;6.88;;;2.40;;
68234;SDS011;55052;52.056;5.296;2022-10-16T05:43:28;7.30;;;2.40;;
68234;SDS011;55052;52.056;5.296;2022-10-16T05:48:26;4.28;;;2.20;;
68234;SDS011;55052;52.056;5.296;2022-10-16T05:51:03;3.88;;;2.20;;
68234;SDS011;55052;52.056;5.296;2022-10-16T05:53:33;4.10;;;2.30;;
68234;SDS011;55052;52.056;5.296;2022-10-16T05:56:02;4.43;;;2.30;;
68234;SDS011;55052;52.056;5.296;2022-10-16T05:58:33;5.85;;;2.50;;
68234;SDS011;55052;52.056;5.296;2022-10-16T06:01:06;6.32;;;2.50;;
68234;SDS011;55052;52.056;5.296;2022-10-16T06:03:38;5.70;;;2.50;;
68234;SDS011;55052;52.056;5.296;2022-10-16T06:06:09;6.35;;;2.22;;
68234;SDS011;55052;52.056;5.296;2022-10-16T06:08:37;4.60;;;2.47;;
68234;SDS011;55052;52.056;5.296;2022-10-16T06:11:06;5.10;;;2.50;;
68234;SDS011;55052;52.056;5.296;2022-10-16T06:13:34;5.45;;;2.33;;
68234;SDS011;55052;52.056;5.296;2022-10-16T06:16:01;8.35;;;2.58;;
68234;SDS011;55052;52.056;5.296;2022-10-16T06:18:29;8.85;;;2.55;;
68234;SDS011;55052;52.056;5.296;2022-10-16T06:20:56;7.85;;;2.80;;
68234;SDS011;55052;52.056;5.296;2022-10-16T06:23:24;8.77;;;2.60;;
68234;SDS011;55052;52.056;5.296;2022-10-16T06:25:50;7.60;;;2.40;;
68234;SDS011;55052;52.056;5.296;2022-10-16T06:28:17;6.65;;;2.70;;
68234;SDS011;55052;52.056;5.296;2022-10-16T06:30:44;8.20;;;2.85;;
68234;SDS011;55052;52.056;5.296;2022-10-16T06:33:12;6.10;;;2.60;;
68234;SDS011;55052;52.056;5.296;2022-10-16T06:35:39;6.05;;;2.72;;
68234;SDS011;55052;52.056;5.296;2022-10-16T06:38:06;6.72;;;2.80;;
68234;SDS011;55052;52.056;5.296;2022-10-16T06:40:32;6.32;;;2.45;;
68234;SDS011;55052;52.056;5.296;2022-10-16T06:42:59;7.45;;;2.72;;
68234;SDS011;55052;52.056;5.296;2022-10-16T06:45:26;7.13;;;2.70;;
68234;SDS011;55052;52.056;5.296;2022-10-16T06:47:52;5.78;;;2.47;;
68234;SDS011;55052;52.056;5.296;2022-10-16T06:50:19;10.50;;;2.92;;
68234;SDS011;55052;52.056;5.296;2022-10-16T06:52:46;8.05;;;2.65;;
68234;SDS011;55052;52.056;5.296;2022-10-16T06:55:12;6.32;;;2.60;;
68234;SDS011;55052;52.056;5.296;2022-10-16T06:57:40;8.18;;;2.63;;
68234;SDS011;55052;52.056;5.296;2022-10-16T07:00:07;6.22;;;2.60;;
68234;SDS011;55052;52.056;5.296;2022-10-16T07:02:34;5.18;;;2.60;;
68234;SDS011;55052;52.056;5.296;2022-10-16T07:05:01;7.40;;;2.53;;
68234;SDS011;55052;52.056;5.296;2022-10-16T07:07:28;6.05;;;2.50;;
68234;SDS011;55052;52.056;5.296;2022-10-16T07:09:54;6.72;;;2.60;;
68234;SDS011;55052;52.056;5.296;2022-10-16T07:12:21;5.55;;;2.70;;
68234;SDS011;55052;52.056;5.296;2022-10-16T07:14:48;6.40;;;2.60;;
68234;SDS011;55052;52.056;5.296;2022-10-16T07:17:17;7.05;;;2.78;;
68234;SDS011;55052;52.056;5.296;2022-10-16T07:19:44;9.60;;;2.50;;
68234;SDS011;55052;52.056;5.296;2022-10-16T07:22:11;6.55;;;2.60;;
68234;SDS011;55052;52.056;5.296;2022-10-16T07:24:37;8.57;;;2.55;;
68234;SDS011;55052;52.056;5.296;2022-10-16T07:27:04;6.00;;;2.35;;
68234;SDS011;55052;52.056;5.296;2022-10-16T07:29:31;5.65;;;2.30;;
68234;SDS011;55052;52.056;5.296;2022-10-16T07:31:57;5.80;;;2.22;;
68234;SDS011;55052;52.056;5.296;2022-10-16T07:34:24;8.00;;;2.70;;
68234;SDS011;55052;52.056;5.296;2022-10-16T07:36:52;8.68;;;2.83;;
68234;SDS011;55052;52.056;5.296;2022-10-16T07:39:19;7.28;;;2.60;;
68234;SDS011;55052;52.056;5.296;2022-10-16T07:41:45;8.45;;;2.70;;
68234;SDS011;55052;52.056;5.296;2022-10-16T07:44:12;8.05;;;2.70;;
68234;SDS011;55052;52.056;5.296;2022-10-16T07:46:39;8.10;;;2.67;;
68234;SDS011;55052;52.056;5.296;2022-10-16T07:49:06;7.15;;;3.47;;
68234;SDS011;55052;52.056;5.296;2022-10-16T07:51:32;6.22;;;2.60;;
68234;SDS011;55052;52.056;5.296;2022-10-16T07:53:59;8.93;;;2.90;;
68234;SDS011;55052;52.056;5.296;2022-10-16T07:56:26;6.20;;;2.80;;
68234;SDS011;55052;52.056;5.296;2022-10-16T07:58:53;5.47;;;2.65;;
68234;SDS011;55052;52.056;5.296;2022-10-16T08:01:20;7.72;;;2.58;;
68234;SDS011;55052;52.056;5.296;2022-10-16T08:03:47;6.47;;;3.05;;
68234;SDS011;55052;52.056;5.296;2022-10-16T08:06:16;6.32;;;2.80;;
68234;SDS011;55052;52.056;5.296;2022-10-16T08:08:50;5.72;;;2.70;;
68234;SDS011;55052;52.056;5.296;2022-10-16T08:11:17;9.40;;;3.17;;
68234;SDS011;55052;52.056;5.296;2022-10-16T08:13:43;7.43;;;2.65;;
68234;SDS011;55052;52.056;5.296;2022-10-16T08:16:10;8.40;;;2.80;;
68234;SDS011;55052;52.056;5.296;2022-10-16T08:18:37;8.63;;;3.55;;
68234;SDS011;55052;52.056;5.296;2022-10-16T08:21:05;6.65;;;2.70;;
68234;SDS011;55052;52.056;5.296;2022-10-16T08:23:33;6.82;;;2.90;;
68234;SDS011;55052;52.056;5.296;2022-10-16T08:26:04;6.78;;;2.80;;
68234;SDS011;55052;52.056;5.296;2022-10-16T08:28:32;10.10;;;3.20;;
68234;SDS011;55052;52.056;5.296;2022-10-16T08:31:10;7.55;;;2.50;;
68234;SDS011;55052;52.056;5.296;2022-10-16T08:33:39;8.30;;;2.53;;
68234;SDS011;55052;52.056;5.296;2022-10-16T08:36:08;7.03;;;2.50;;
68234;SDS011;55052;52.056;5.296;2022-10-16T08:38:36;5.57;;;2.90;;
68234;SDS011;55052;52.056;5.296;2022-10-16T08:43:41;5.32;;;2.60;;
68234;SDS011;55052;52.056;5.296;2022-10-16T08:48:53;7.25;;;2.53;;
68234;SDS011;55052;52.056;5.296;2022-10-16T08:51:26;5.55;;;2.70;;
68234;SDS011;55052;52.056;5.296;2022-10-16T08:53:57;12.18;;;2.95;;
68234;SDS011;55052;52.056;5.296;2022-10-16T08:56:53;5.35;;;2.10;;
68234;SDS011;55052;52.056;5.296;2022-10-16T08:59:21;6.05;;;2.55;;
68234;SDS011;55052;52.056;5.296;2022-10-16T09:01:49;6.22;;;2.83;;
68234;SDS011;55052;52.056;5.296;2022-10-16T09:06:52;7.53;;;2.47;;
68234;SDS011;55052;52.056;5.296;2022-10-16T09:12:23;8.00;;;2.55;;
68234;SDS011;55052;52.056;5.296;2022-10-16T09:15:11;8.43;;;3.00;;
68234;SDS011;55052;52.056;5.296;2022-10-16T09:23:10;8.82;;;2.80;;
68234;SDS011;55052;52.056;5.296;2022-10-16T09:25:44;8.23;;;2.35;;
68234;SDS011;55052;52.056;5.296;2022-10-16T09:28:13;8.20;;;2.28;;
68234;SDS011;55052;52.056;5.296;2022-10-16T09:30:41;9.13;;;2.35;;
68234;SDS011;55052;52.056;5.296;2022-10-16T09:33:09;9.02;;;2.90;;
68234;SDS011;55052;52.056;5.296;2022-10-16T09:35:43;10.95;;;2.40;;
68234;SDS011;55052;52.056;5.296;2022-10-16T09:38:25;9.30;;;2.72;;
68234;SDS011;55052;52.056;5.296;2022-10-16T09:40:57;9.57;;;2.50;;
68234;SDS011;55052;52.056;5.296;2022-10-16T09:43:47;9.32;;;2.20;;
68234;SDS011;55052;52.056;5.296;2022-10-16T09:46:22;5.90;;;2.50;;
68234;SDS011;55052;52.056;5.296;2022-10-16T09:48:58;10.35;;;3.17;;
68234;SDS011;55052;52.056;5.296;2022-10-16T09:51:27;10.60;;;2.40;;
68234;SDS011;55052;52.056;5.296;2022-10-16T09:53:57;14.85;;;2.35;;
68234;SDS011;55052;52.056;5.296;2022-10-16T09:56:31;11.25;;;2.70;;
68234;SDS011;55052;52.056;5.296;2022-10-16T09:59:22;13.88;;;2.67;;
68234;SDS011;55052;52.056;5.296;2022-10-16T10:01:54;11.30;;;2.25;;
68234;SDS011;55052;52.056;5.296;2022-10-16T10:04:24;10.23;;;2.08;;
68234;SDS011;55052;52.056;5.296;2022-10-16T10:06:55;10.80;;;2.28;;
68234;SDS011;55052;52.056;5.296;2022-10-16T10:09:23;9.60;;;2.00;;
68234;SDS011;55052;52.056;5.296;2022-10-16T10:11:59;8.00;;;2.05;;
68234;SDS011;55052;52.056;5.296;2022-10-16T10:14:35;7.40;;;2.15;;
68234;SDS011;55052;52.056;5.296;2022-10-16T10:17:17;10.60;;;2.65;;
68234;SDS011;55052;52.056;5.296;2022-10-16T10:19:59;9.25;;;2.40;;
68234;SDS011;55052;52.056;5.296;2022-10-16T10:22:44;13.55;;;2.90;;
68234;SDS011;55052;52.056;5.296;2022-10-16T10:33:52;9.95;;;2.40;;
68234;SDS011;55052;52.056;5.296;2022-10-16T10:36:29;11.23;;;2.25;;
68234;SDS011;55052;52.056;5.296;2022-10-16T10:39:06;8.98;;;2.47;;
68234;SDS011;55052;52.056;5.296;2022-10-16T10:41:59;12.20;;;2.17;;
68234;SDS011;55052;52.056;5.296;2022-10-16T10:47:24;9.90;;;2.28;;
68234;SDS011;55052;52.056;5.296;2022-10-16T11:06:39;6.90;;;2.03;;
68234;SDS011;55052;52.056;5.296;2022-10-16T11:14:30;9.73;;;2.47;;
68234;SDS011;55052;52.056;5.296;2022-10-16T11:17:32;13.10;;;2.40;;
68234;SDS011;55052;52.056;5.296;2022-10-16T11:20:25;14.35;;;3.00;;
68234;SDS011;55052;52.056;5.296;2022-10-16T11:25:59;8.65;;;2.00;;
68234;SDS011;55052;52.056;5.296;2022-10-16T11:28:34;11.23;;;2.45;;
68234;SDS011;55052;52.056;5.296;2022-10-16T11:31:26;7.32;;;2.17;;
68234;SDS011;55052;52.056;5.296;2022-10-16T11:34:21;9.65;;;2.30;;
68234;SDS011;55052;52.056;5.296;2022-10-16T11:37:13;10.10;;;1.90;;
68234;SDS011;55052;52.056;5.296;2022-10-16T11:39:43;9.18;;;1.70;;
68234;SDS011;55052;52.056;5.296;2022-10-16T11:42:11;7.05;;;2.00;;
68234;SDS011;55052;52.056;5.296;2022-10-16T11:44:59;13.02;;;2.47;;
68234;SDS011;55052;52.056;5.296;2022-10-16T11:47:35;10.63;;;2.35;;
68234;SDS011;55052;52.056;5.296;2022-10-16T11:55:36;12.57;;;2.67;;
68234;SDS011;55052;52.056;5.296;2022-10-16T12:01:16;12.73;;;2.08;;
68234;SDS011;55052;52.056;5.296;2022-10-16T12:04:11;11.20;;;2.33;;
68234;SDS011;55052;52.056;5.296;2022-10-16T12:06:48;13.75;;;2.10;;
68234;SDS011;55052;52.056;5.296;2022-10-16T12:09:21;8.15;;;1.90;;
68234;SDS011;55052;52.056;5.296;2022-10-16T12:11:52;7.30;;;1.80;;
68234;SDS011;55052;52.056;5.296;2022-10-16T12:16:56;9.82;;;1.73;;
68234;SDS011;55052;52.056;5.296;2022-10-16T12:21:57;10.23;;;1.90;;
68234;SDS011;55052;52.056;5.296;2022-10-16T12:24:33;8.65;;;1.85;;
68234;SDS011;55052;52.056;5.296;2022-10-16T12:27:05;7.40;;;2.00;;
68234;SDS011;55052;52.056;5.296;2022-10-16T12:29:46;10.43;;;2.35;;
68234;SDS011;55052;52.056;5.296;2022-10-16T12:32:47;8.93;;;2.13;;
68234;SDS011;55052;52.056;5.296;2022-10-16T12:35:22;10.38;;;2.33;;
68234;SDS011;55052;52.056;5.296;2022-10-16T12:37:54;7.43;;;1.83;;
68234;SDS011;55052;52.056;5.296;2022-10-16T12:40:32;7.82;;;1.88;;
68234;SDS011;55052;52.056;5.296;2022-10-16T12:44:02;10.98;;;1.95;;
68234;SDS011;55052;52.056;5.296;2022-10-16T12:46:03;8.50;;;2.10;;
68234;SDS011;55052;52.056;5.296;2022-10-16T12:48:45;9.13;;;2.10;;
68234;SDS011;55052;52.056;5.296;2022-10-16T12:54:17;10.98;;;2.05;;
68234;SDS011;55052;52.056;5.296;2022-10-16T12:59:55;11.82;;;2.10;;
68234;SDS011;55052;52.056;5.296;2022-10-16T13:05:52;9.75;;;2.00;;
68234;SDS011;55052;52.056;5.296;2022-10-16T13:08:55;7.00;;;1.83;;
68234;SDS011;55052;52.056;5.296;2022-10-16T13:14:48;13.82;;;2.47;;
68234;SDS011;55052;52.056;5.296;2022-10-16T13:20:22;10.90;;;2.22;;
68234;SDS011;55052;52.056;5.296;2022-10-16T13:28:18;12.13;;;1.90;;
68234;SDS011;55052;52.056;5.296;2022-10-16T13:30:51;13.27;;;2.17;;
68234;SDS011;55052;52.056;5.296;2022-10-16T13:36:05;14.40;;;2.50;;
68234;SDS011;55052;52.056;5.296;2022-10-16T13:38:34;12.90;;;2.60;;
68234;SDS011;55052;52.056;5.296;2022-10-16T13:41:06;10.37;;;1.90;;
68234;SDS011;55052;52.056;5.296;2022-10-16T13:43:51;14.93;;;2.13;;
68234;SDS011;55052;52.056;5.296;2022-10-16T13:46:20;10.15;;;2.22;;
68234;SDS011;55052;52.056;5.296;2022-10-16T13:49:01;12.80;;;2.85;;
68234;SDS011;55052;52.056;5.296;2022-10-16T13:51:30;10.57;;;2.25;;
68234;SDS011;55052;52.056;5.296;2022-10-16T13:53:58;11.38;;;2.17;;
68234;SDS011;55052;52.056;5.296;2022-10-16T13:56:26;9.30;;;1.98;;
68234;SDS011;55052;52.056;5.296;2022-10-16T13:59:02;13.97;;;2.23;;
68234;SDS011;55052;52.056;5.296;2022-10-16T14:01:32;11.95;;;2.38;;
68234;SDS011;55052;52.056;5.296;2022-10-16T14:04:05;9.32;;;2.08;;
68234;SDS011;55052;52.056;5.296;2022-10-16T14:06:35;13.18;;;2.63;;
68234;SDS011;55052;52.056;5.296;2022-10-16T14:11:50;11.00;;;2.47;;
68234;SDS011;55052;52.056;5.296;2022-10-16T14:14:20;8.63;;;1.88;;
68234;SDS011;55052;52.056;5.296;2022-10-16T14:16:47;11.20;;;1.85;;
68234;SDS011;55052;52.056;5.296;2022-10-16T14:19:24;7.97;;;1.73;;
68234;SDS011;55052;52.056;5.296;2022-10-16T14:21:54;8.75;;;2.08;;
68234;SDS011;55052;52.056;5.296;2022-10-16T14:26:57;11.68;;;1.90;;
68234;SDS011;55052;52.056;5.296;2022-10-16T14:29:25;8.93;;;2.33;;
68234;SDS011;55052;52.056;5.296;2022-10-16T14:31:57;7.90;;;2.00;;
68234;SDS011;55052;52.056;5.296;2022-10-16T14:37:24;11.40;;;2.47;;
68234;SDS011;55052;52.056;5.296;2022-10-16T14:39:54;10.43;;;2.17;;
68234;SDS011;55052;52.056;5.296;2022-10-16T14:42:22;12.77;;;2.50;;
68234;SDS011;55052;52.056;5.296;2022-10-16T14:44:51;14.90;;;2.97;;
68234;SDS011;55052;52.056;5.296;2022-10-16T14:47:19;13.23;;;2.50;;
68234;SDS011;55052;52.056;5.296;2022-10-16T14:49:51;11.75;;;2.70;;
68234;SDS011;55052;52.056;5.296;2022-10-16T14:54:48;14.63;;;5.40;;
68234;SDS011;55052;52.056;5.296;2022-10-16T14:57:19;9.75;;;2.20;;
68234;SDS011;55052;52.056;5.296;2022-10-16T14:59:49;12.18;;;2.13;;
68234;SDS011;55052;52.056;5.296;2022-10-16T15:02:27;13.70;;;2.67;;
68234;SDS011;55052;52.056;5.296;2022-10-16T15:04:55;9.43;;;1.90;;
68234;SDS011;55052;52.056;5.296;2022-10-16T15:07:22;16.45;;;2.38;;
68234;SDS011;55052;52.056;5.296;2022-10-16T15:09:50;10.02;;;2.35;;
68234;SDS011;55052;52.056;5.296;2022-10-16T15:12:17;13.18;;;2.63;;
68234;SDS011;55052;52.056;5.296;2022-10-16T15:14:44;11.85;;;2.28;;
68234;SDS011;55052;52.056;5.296;2022-10-16T15:17:11;8.07;;;2.20;;
68234;SDS011;55052;52.056;5.296;2022-10-16T15:19:38;8.45;;;2.17;;
68234;SDS011;55052;52.056;5.296;2022-10-16T15:22:04;12.63;;;2.50;;
68234;SDS011;55052;52.056;5.296;2022-10-16T15:24:31;10.13;;;2.30;;
68234;SDS011;55052;52.056;5.296;2022-10-16T15:26:58;11.07;;;2.47;;
68234;SDS011;55052;52.056;5.296;2022-10-16T15:29:24;6.88;;;2.50;;
68234;SDS011;55052;52.056;5.296;2022-10-16T15:31:51;8.05;;;2.78;;
68234;SDS011;55052;52.056;5.296;2022-10-16T15:34:17;11.80;;;3.50;;
68234;SDS011;55052;52.056;5.296;2022-10-16T15:36:45;11.63;;;3.58;;
68234;SDS011;55052;52.056;5.296;2022-10-16T15:39:13;9.05;;;3.20;;
68234;SDS011;55052;52.056;5.296;2022-10-16T15:41:42;11.95;;;3.53;;
68234;SDS011;55052;52.056;5.296;2022-10-16T15:44:09;12.90;;;3.63;;
68234;SDS011;55052;52.056;5.296;2022-10-16T15:46:36;17.35;;;4.22;;
68234;SDS011;55052;52.056;5.296;2022-10-16T15:49:03;11.30;;;4.00;;
68234;SDS011;55052;52.056;5.296;2022-10-16T15:51:30;13.45;;;4.78;;
68234;SDS011;55052;52.056;5.296;2022-10-16T15:53:59;16.30;;;5.68;;
68234;SDS011;55052;52.056;5.296;2022-10-16T15:56:28;17.45;;;5.85;;
68234;SDS011;55052;52.056;5.296;2022-10-16T15:58:55;15.60;;;5.97;;
68234;SDS011;55052;52.056;5.296;2022-10-16T16:01:23;15.20;;;5.88;;
68234;SDS011;55052;52.056;5.296;2022-10-16T16:03:52;14.55;;;5.45;;
68234;SDS011;55052;52.056;5.296;2022-10-16T16:06:20;16.90;;;6.57;;
68234;SDS011;55052;52.056;5.296;2022-10-16T16:08:47;17.23;;;5.38;;
68234;SDS011;55052;52.056;5.296;2022-10-16T16:11:14;13.45;;;5.60;;
68234;SDS011;55052;52.056;5.296;2022-10-16T16:13:42;17.05;;;5.22;;
68234;SDS011;55052;52.056;5.296;2022-10-16T16:16:10;15.32;;;5.00;;
68234;SDS011;55052;52.056;5.296;2022-10-16T16:18:38;13.63;;;5.28;;
68234;SDS011;55052;52.056;5.296;2022-10-16T16:21:06;11.98;;;5.38;;
68234;SDS011;55052;52.056;5.296;2022-10-16T16:23:33;13.45;;;4.93;;
68234;SDS011;55052;52.056;5.296;2022-10-16T16:28:38;13.80;;;4.88;;
68234;SDS011;55052;52.056;5.296;2022-10-16T16:31:06;11.13;;;3.38;;
68234;SDS011;55052;52.056;5.296;2022-10-16T16:33:33;10.38;;;3.55;;
68234;SDS011;55052;52.056;5.296;2022-10-16T16:36:01;14.40;;;3.67;;
68234;SDS011;55052;52.056;5.296;2022-10-16T16:38:29;13.05;;;3.20;;
68234;SDS011;55052;52.056;5.296;2022-10-16T16:40:57;10.02;;;3.53;;
68234;SDS011;55052;52.056;5.296;2022-10-16T16:43:24;11.35;;;3.35;;
68234;SDS011;55052;52.056;5.296;2022-10-16T16:45:52;12.57;;;3.42;;
68234;SDS011;55052;52.056;5.296;2022-10-16T16:48:20;10.73;;;3.40;;
68234;SDS011;55052;52.056;5.296;2022-10-16T16:50:47;13.68;;;3.55;;
68234;SDS011;55052;52.056;5.296;2022-10-16T16:53:14;12.52;;;3.13;;
68234;SDS011;55052;52.056;5.296;2022-10-16T16:55:40;11.35;;;2.90;;
68234;SDS011;55052;52.056;5.296;2022-10-16T16:58:07;8.32;;;3.08;;
68234;SDS011;55052;52.056;5.296;2022-10-16T17:00:34;14.73;;;3.17;;
68234;SDS011;55052;52.056;5.296;2022-10-16T17:03:00;14.57;;;3.15;;
68234;SDS011;55052;52.056;5.296;2022-10-16T17:05:27;12.48;;;3.00;;
68234;SDS011;55052;52.056;5.296;2022-10-16T17:07:54;8.82;;;3.00;;
68234;SDS011;55052;52.056;5.296;2022-10-16T17:10:21;23.70;;;7.32;;
68234;SDS011;55052;52.056;5.296;2022-10-16T17:12:47;14.18;;;4.30;;
68234;SDS011;55052;52.056;5.296;2022-10-16T17:15:14;21.55;;;5.70;;